Terminal Aerodrome Forecast
Issued by NWS Northern Indiana

Home | Current Version | Previous Version | Graphics & Text | Print | Product List | Glossary On
Versions: 1 2 3 4 5 6 7 8 9 10 11 12 13 14 15 16 17 18
746
FTUS43 KIWX 031302 AAA
TAFFWA
TAF AMD
KFWA 031302Z 0313/0412 35003KT P6SM -SHRA BKN045 OVC060
      TEMPO 0313/0315 6SM -SHRA BKN025
     FM031500 26007KT P6SM SCT030 BKN050
     FM040000 22007KT P6SM OVC035=

USA.gov is the U.S. government's official web portal to all federal, state and local government web resources and services.